createdAt,value
2023-03-26T00:02:56.724Z,60.28
2023-03-26T00:06:07.272Z,60.75
2023-03-26T00:09:10.500Z,60.72
2023-03-26T00:12:15.207Z,60.96
2023-03-26T00:15:17.936Z,60.93
2023-03-26T00:18:20.500Z,61.10
2023-03-26T00:21:24.204Z,61.09
2023-03-26T00:24:25.985Z,61.14
2023-03-26T00:27:27.469Z,61.23
2023-03-26T00:30:29.123Z,61.58
2023-03-26T00:33:31.534Z,61.99
2023-03-26T00:36:33.419Z,62.15
2023-03-26T00:39:35.058Z,62.48
2023-03-26T00:42:38.010Z,62.54
2023-03-26T00:45:39.736Z,62.63
2023-03-26T00:48:45.578Z,62.69
2023-03-26T00:51:47.733Z,62.54
2023-03-26T00:54:51.874Z,62.62
2023-03-26T00:57:53.621Z,62.76
2023-03-26T01:01:01.184Z,62.51
2023-03-26T01:04:21.856Z,63.16
2023-03-26T01:07:27.319Z,62.82
2023-03-26T01:10:29.632Z,62.98
2023-03-26T01:13:34.107Z,62.86
2023-03-26T01:16:52.509Z,63.27
2023-03-26T01:19:58.732Z,63.23
2023-03-26T01:23:02.941Z,63.02
2023-03-26T01:26:12.527Z,62.89
2023-03-26T01:29:34.218Z,62.88
2023-03-26T01:33:09.220Z,63.29
2023-03-26T01:36:29.109Z,63.13
2023-03-26T01:39:57.301Z,63.38
2023-03-26T01:43:31.252Z,63.53
2023-03-26T01:46:34.408Z,63.47
2023-03-26T01:49:36.041Z,63.68
2023-03-26T01:52:38.230Z,63.78
2023-03-26T01:55:54.775Z,63.41
2023-03-26T01:59:15.147Z,63.99
2023-03-26T02:02:24.470Z,64.43
2023-03-26T02:05:34.196Z,64.24
2023-03-26T02:08:39.804Z,64.49
2023-03-26T02:11:41.633Z,64.62
2023-03-26T02:14:43.516Z,64.75
2023-03-26T02:17:45.594Z,64.61
2023-03-26T02:20:47.340Z,65.02
2023-03-26T02:23:51.349Z,65.49
2023-03-26T02:26:53.132Z,66.05
2023-03-26T02:29:54.847Z,66.27
2023-03-26T02:32:56.530Z,66.93
2023-03-26T02:35:58.966Z,67.00
2023-03-26T02:39:01.005Z,67.34
2023-03-26T02:42:02.605Z,67.63
2023-03-26T02:45:05.728Z,67.96
2023-03-26T02:48:07.351Z,67.76
2023-03-26T02:51:09.444Z,67.56
2023-03-26T02:54:20.021Z,67.38
2023-03-26T02:57:22.683Z,67.17
2023-03-26T03:00:24.694Z,67.14
2023-03-26T03:03:27.757Z,67.98
2023-03-26T03:06:29.688Z,69.07
2023-03-26T03:09:31.578Z,69.52
2023-03-26T03:12:33.337Z,69.57
2023-03-26T03:15:35.409Z,69.17
2023-03-26T03:18:39.719Z,69.02
2023-03-26T03:21:42.101Z,68.39
2023-03-26T03:24:43.763Z,68.47
2023-03-26T03:27:45.206Z,68.78
2023-03-26T03:30:47.178Z,68.63
2023-03-26T03:33:48.909Z,67.61
2023-03-26T03:36:51.077Z,67.19
2023-03-26T03:39:53.024Z,67.22
2023-03-26T03:42:54.694Z,67.17
2023-03-26T03:45:56.814Z,67.12
2023-03-26T03:48:58.683Z,67.32
2023-03-26T03:52:00.701Z,67.32
2023-03-26T03:55:02.586Z,67.18
2023-03-26T03:58:04.442Z,67.06
2023-03-26T04:01:06.408Z,67.05
2023-03-26T04:04:08.050Z,67.05
2023-03-26T04:07:10.173Z,67.05
2023-03-26T04:10:15.160Z,67.08
2023-03-26T04:13:17.211Z,66.93
2023-03-26T04:16:18.921Z,67.14
2023-03-26T04:19:20.689Z,67.30
2023-03-26T04:22:22.650Z,67.42
2023-03-26T04:25:24.320Z,67.78
2023-03-26T04:28:32.480Z,67.96
2023-03-26T04:31:34.183Z,69.28
2023-03-26T04:34:35.973Z,70.49
2023-03-26T04:37:40.203Z,70.80
2023-03-26T04:40:43.359Z,70.23
2023-03-26T04:43:45.144Z,70.10
2023-03-26T04:46:46.733Z,70.16
2023-03-26T04:49:48.478Z,70.08
2023-03-26T04:52:50.553Z,69.78
2023-03-26T04:55:59.224Z,69.68
2023-03-26T04:59:01.983Z,69.59
2023-03-26T05:02:05.375Z,69.28
2023-03-26T05:05:07.790Z,69.21
2023-03-26T05:08:09.568Z,69.22
2023-03-26T05:11:11.369Z,69.02
2023-03-26T05:14:13.155Z,69.13
2023-03-26T05:17:15.406Z,69.54
2023-03-26T05:20:25.797Z,69.47
2023-03-26T05:23:27.457Z,69.91
2023-03-26T05:26:29.504Z,69.76
2023-03-26T05:29:31.095Z,69.51
2023-03-26T05:32:33.467Z,69.47
2023-03-26T05:35:35.121Z,69.30
2023-03-26T05:38:36.949Z,69.00
2023-03-26T05:41:38.530Z,68.98
2023-03-26T05:44:40.181Z,68.81
2023-03-26T05:47:41.932Z,68.76
2023-03-26T05:50:43.518Z,68.36
2023-03-26T05:53:45.199Z,66.96
2023-03-26T05:56:46.718Z,65.82
2023-03-26T05:59:59.529Z,65.34
2023-03-26T06:03:05.153Z,65.87
2023-03-26T06:06:16.921Z,64.72
2023-03-26T06:09:21.214Z,63.97
2023-03-26T06:12:23.347Z,64.96
2023-03-26T06:15:25.600Z,65.57
2023-03-26T06:18:37.848Z,65.73
2023-03-26T06:21:53.965Z,65.79
2023-03-26T06:24:55.779Z,64.93
2023-03-26T06:28:11.022Z,65.18
2023-03-26T06:31:13.245Z,64.30
2023-03-26T06:34:24.013Z,63.40
2023-03-26T06:37:25.880Z,61.64
2023-03-26T06:40:27.892Z,61.01
2023-03-26T06:43:29.918Z,60.22
2023-03-26T06:46:33.020Z,60.70
2023-03-26T06:49:34.769Z,59.46
2023-03-26T06:52:36.985Z,59.72
2023-03-26T06:55:38.718Z,60.07
2023-03-26T06:58:40.752Z,60.81
2023-03-26T07:01:42.413Z,60.25
2023-03-26T07:04:44.379Z,60.16
2023-03-26T07:07:47.477Z,60.89
2023-03-26T07:10:52.311Z,60.36
2023-03-26T07:13:56.915Z,61.19
2023-03-26T07:16:59.418Z,61.63
2023-03-26T07:20:03.668Z,60.61
2023-03-26T07:23:10.872Z,60.83
2023-03-26T07:26:48.296Z,60.99
2023-03-26T07:29:59.507Z,60.63
2023-03-26T07:33:07.995Z,60.71
2023-03-26T07:36:18.619Z,58.74
2023-03-26T07:39:42.157Z,56.61
2023-03-26T07:42:53.078Z,55.13
2023-03-26T07:45:55.516Z,53.39
2023-03-26T07:48:58.045Z,53.31
2023-03-26T07:52:00.236Z,52.32
2023-03-26T07:55:02.349Z,50.53
2023-03-26T07:58:30.659Z,50.42
2023-03-26T08:01:39.800Z,50.33
2023-03-26T08:05:05.321Z,50.51
2023-03-26T08:08:23.142Z,50.07
2023-03-26T08:11:54.594Z,50.68
2023-03-26T08:15:29.654Z,48.84
2023-03-26T08:18:57.754Z,49.59
2023-03-26T08:22:05.967Z,47.75
2023-03-26T08:25:22.395Z,47.25
2023-03-26T08:28:35.468Z,46.60
2023-03-26T08:31:39.756Z,46.86
2023-03-26T08:34:41.390Z,47.12
2023-03-26T08:37:43.220Z,47.17
2023-03-26T08:41:06.696Z,47.60
2023-03-26T08:44:46.574Z,47.84
2023-03-26T08:48:00.973Z,49.39
2023-03-26T08:51:25.364Z,50.34
2023-03-26T08:54:41.395Z,51.45
2023-03-26T08:57:49.360Z,52.47
2023-03-26T09:00:54.298Z,51.29
2023-03-26T09:04:10.497Z,50.56
2023-03-26T09:07:30.311Z,50.62
2023-03-26T09:11:05.096Z,51.50
2023-03-26T09:14:36.927Z,50.44
2023-03-26T09:18:12.717Z,50.32
2023-03-26T09:21:24.359Z,48.16
2023-03-26T09:24:48.998Z,47.27
2023-03-26T09:28:09.948Z,49.24
2023-03-26T09:31:23.870Z,47.46
2023-03-26T09:34:55.869Z,48.08
2023-03-26T09:38:11.618Z,47.22
2023-03-26T09:41:42.565Z,46.00
2023-03-26T09:45:00.956Z,45.01
2023-03-26T09:48:15.664Z,45.60
2023-03-26T09:51:54.379Z,45.67
2023-03-26T09:55:04.899Z,46.67
2023-03-26T09:58:31.778Z,46.85
2023-03-26T10:01:57.735Z,47.55
2023-03-26T10:05:08.442Z,47.87
2023-03-26T10:08:34.730Z,48.56
2023-03-26T10:12:01.927Z,47.95
2023-03-26T10:15:47.951Z,47.87
2023-03-26T10:19:13.001Z,48.18
2023-03-26T10:22:26.640Z,47.39
2023-03-26T10:25:50.138Z,46.89
2023-03-26T10:29:10.520Z,48.21
2023-03-26T10:32:33.912Z,48.50
2023-03-26T10:35:48.922Z,47.84
2023-03-26T10:39:01.818Z,48.44
2023-03-26T10:42:06.761Z,48.40
2023-03-26T10:45:12.476Z,48.73
2023-03-26T10:48:19.611Z,49.63
2023-03-26T10:51:41.669Z,50.06
2023-03-26T10:54:52.429Z,50.15
2023-03-26T10:57:59.416Z,50.11
2023-03-26T11:01:06.264Z,50.01
2023-03-26T11:04:14.450Z,50.16
2023-03-26T11:07:27.492Z,50.08
2023-03-26T11:10:40.064Z,50.44
2023-03-26T11:13:57.595Z,51.19
2023-03-26T11:17:39.572Z,51.25
2023-03-26T11:20:48.738Z,50.60
2023-03-26T11:24:09.099Z,49.80
2023-03-26T11:27:26.203Z,48.38
2023-03-26T11:30:43.622Z,48.39
2023-03-26T11:33:48.383Z,47.94
2023-03-26T11:36:53.894Z,48.41
2023-03-26T11:39:57.495Z,48.76
2023-03-26T11:43:03.630Z,49.22
2023-03-26T11:46:08.614Z,49.51
2023-03-26T11:49:12.894Z,48.87
2023-03-26T11:52:15.000Z,47.67
2023-03-26T11:55:16.918Z,47.15
2023-03-26T11:59:08.158Z,47.39
2023-03-26T12:02:09.771Z,46.71
2023-03-26T12:05:11.406Z,46.41
2023-03-26T12:08:22.252Z,47.07
2023-03-26T12:11:29.829Z,47.56
2023-03-26T12:14:34.542Z,48.08
2023-03-26T12:17:38.081Z,48.21
2023-03-26T12:20:40.157Z,49.44
2023-03-26T12:23:54.600Z,50.32
2023-03-26T12:27:00.518Z,50.60
2023-03-26T12:30:26.463Z,50.80
2023-03-26T12:33:30.257Z,51.05
2023-03-26T12:36:34.879Z,51.45
2023-03-26T12:40:09.944Z,51.62
2023-03-26T12:44:53.906Z,52.16
2023-03-26T12:48:00.104Z,52.15
2023-03-26T12:50:12.971Z,52.29
2023-03-26T12:53:59.510Z,52.52
2023-03-26T12:57:20.867Z,52.79
2023-03-26T13:00:35.481Z,52.89
2023-03-26T13:04:19.128Z,53.01
2023-03-26T13:07:39.448Z,52.90
2023-03-26T13:11:05.487Z,52.71
2023-03-26T13:14:19.091Z,52.85
2023-03-26T13:17:40.631Z,52.98
2023-03-26T13:20:57.571Z,52.87
2023-03-26T13:24:24.294Z,51.99
2023-03-26T13:27:35.455Z,52.38
2023-03-26T13:30:43.521Z,52.69
2023-03-26T13:33:50.308Z,52.73
2023-03-26T13:37:11.332Z,52.05
2023-03-26T13:40:31.521Z,50.38
2023-03-26T13:43:58.573Z,48.63
2023-03-26T13:47:05.365Z,48.53
2023-03-26T13:50:29.341Z,47.26
2023-03-26T13:54:01.393Z,47.59
2023-03-26T13:57:23.658Z,48.33
2023-03-26T14:00:38.576Z,48.93
2023-03-26T14:04:01.136Z,49.25
2023-03-26T14:07:08.901Z,50.42
2023-03-26T14:10:15.408Z,49.85
2023-03-26T14:13:33.906Z,49.52
2023-03-26T14:16:39.957Z,48.91
2023-03-26T14:20:10.492Z,47.06
2023-03-26T14:23:48.243Z,46.65
2023-03-26T14:27:14.212Z,45.24
2023-03-26T14:30:40.823Z,45.55
2023-03-26T14:34:30.145Z,46.71
2023-03-26T14:38:06.376Z,46.74
2023-03-26T14:41:33.596Z,47.10
2023-03-26T14:45:13.008Z,47.17
2023-03-26T14:49:09.569Z,48.26
2023-03-26T14:52:42.208Z,47.20
2023-03-26T14:56:21.559Z,48.33
2023-03-26T14:59:56.314Z,47.36
2023-03-26T15:03:13.512Z,47.71
2023-03-26T15:07:09.913Z,48.18
2023-03-26T15:10:16.041Z,48.86
2023-03-26T15:13:36.309Z,49.32
2023-03-26T15:16:45.500Z,49.51
2023-03-26T15:20:24.279Z,49.88
2023-03-26T15:24:12.323Z,50.42
2023-03-26T15:27:49.680Z,50.42
2023-03-26T15:31:06.379Z,50.75
2023-03-26T15:34:30.296Z,50.77
2023-03-26T15:38:02.782Z,50.96
2023-03-26T15:41:21.896Z,51.15
2023-03-26T15:44:32.996Z,51.05
2023-03-26T15:47:52.662Z,51.06
2023-03-26T15:51:06.547Z,50.90
2023-03-26T15:54:22.893Z,51.03
2023-03-26T15:57:34.638Z,51.01
2023-03-26T16:00:47.950Z,50.97
2023-03-26T16:04:17.951Z,51.13
2023-03-26T16:08:07.843Z,51.10
2023-03-26T16:11:10.324Z,51.37
2023-03-26T16:14:40.395Z,51.42
2023-03-26T16:18:10.365Z,51.45
2023-03-26T16:21:32.437Z,51.42
2023-03-26T16:24:38.736Z,51.80
2023-03-26T16:27:44.453Z,51.70
2023-03-26T16:31:36.718Z,51.70
2023-03-26T16:34:45.509Z,51.79
2023-03-26T16:37:49.116Z,51.83
2023-03-26T16:41:14.095Z,51.84
2023-03-26T16:44:37.508Z,51.87
2023-03-26T16:47:54.843Z,51.89
2023-03-26T16:51:05.124Z,51.95
2023-03-26T16:54:17.441Z,51.73
2023-03-26T16:57:27.049Z,51.96
2023-03-26T17:00:36.538Z,51.97
2023-03-26T17:04:00.430Z,52.00
2023-03-26T17:07:11.194Z,52.14
2023-03-26T17:10:22.405Z,52.17
2023-03-26T17:13:28.464Z,52.32
2023-03-26T17:16:46.350Z,52.49
2023-03-26T17:19:59.190Z,52.43
2023-03-26T17:23:26.342Z,52.48
2023-03-26T17:26:59.230Z,52.45
2023-03-26T17:30:38.988Z,52.49
2023-03-26T17:34:01.441Z,52.30
2023-03-26T17:37:11.367Z,52.62
2023-03-26T17:40:55.746Z,52.70
2023-03-26T17:44:37.536Z,52.60
2023-03-26T17:47:42.534Z,52.62
2023-03-26T17:50:51.519Z,52.95
2023-03-26T17:53:54.047Z,53.31
2023-03-26T17:57:04.473Z,53.82
2023-03-26T18:00:26.984Z,53.72
2023-03-26T18:03:48.726Z,54.17
2023-03-26T18:07:29.340Z,54.27
2023-03-26T18:10:44.412Z,54.82
2023-03-26T18:14:33.071Z,55.27
2023-03-26T18:17:46.950Z,55.51
2023-03-26T18:21:23.057Z,55.55
2023-03-26T18:24:39.478Z,55.93
2023-03-26T18:27:47.076Z,56.40
2023-03-26T18:31:15.440Z,56.52
2023-03-26T18:34:18.794Z,56.89
2023-03-26T18:37:41.263Z,57.25
2023-03-26T18:41:26.884Z,57.20
2023-03-26T18:44:32.185Z,57.56
2023-03-26T18:47:57.123Z,57.79
2023-03-26T18:51:06.129Z,57.93
2023-03-26T18:54:09.632Z,58.06
2023-03-26T18:57:16.550Z,58.35
2023-03-26T19:00:39.068Z,58.25
2023-03-26T19:04:05.249Z,58.79
2023-03-26T19:07:10.730Z,58.85
2023-03-26T19:10:35.776Z,59.05
2023-03-26T19:13:39.328Z,59.12
2023-03-26T19:17:22.058Z,59.30
2023-03-26T19:20:38.225Z,59.04
2023-03-26T19:23:41.111Z,59.61
2023-03-26T19:26:44.380Z,59.93
2023-03-26T19:30:06.845Z,59.81
2023-03-26T19:33:16.702Z,60.50
2023-03-26T19:36:27.147Z,61.01
2023-03-26T19:39:43.776Z,61.16
2023-03-26T19:42:45.619Z,61.25
2023-03-26T19:46:17.277Z,61.28
2023-03-26T19:49:54.222Z,61.27
2023-03-26T19:53:16.167Z,61.54
2023-03-26T19:56:39.606Z,61.40
2023-03-26T19:59:41.589Z,61.72
2023-03-26T20:03:05.214Z,62.17
2023-03-26T20:06:11.775Z,61.75
2023-03-26T20:09:17.289Z,61.70
2023-03-26T20:12:22.225Z,62.21
2023-03-26T20:16:06.120Z,62.35
2023-03-26T20:19:16.322Z,62.54
2023-03-26T20:22:21.048Z,63.14
2023-03-26T20:25:33.414Z,63.22
2023-03-26T20:28:42.447Z,63.09
2023-03-26T20:31:50.313Z,63.38
2023-03-26T20:34:52.145Z,63.60
2023-03-26T20:37:54.201Z,63.94
2023-03-26T20:40:56.639Z,63.82
2023-03-26T20:43:59.523Z,64.62
2023-03-26T20:47:01.699Z,64.21
2023-03-26T20:50:03.896Z,64.25
2023-03-26T20:53:05.955Z,64.20
2023-03-26T20:56:16.651Z,64.36
2023-03-26T20:59:21.520Z,64.52
2023-03-26T21:02:23.822Z,64.40
2023-03-26T21:05:26.968Z,64.41
2023-03-26T21:08:29.653Z,64.27
2023-03-26T21:11:53.813Z,64.30
2023-03-26T21:14:56.121Z,64.75
2023-03-26T21:17:58.979Z,64.77
2023-03-26T21:21:22.836Z,64.76
2023-03-26T21:25:01.331Z,65.03
2023-03-26T21:28:39.789Z,65.00
2023-03-26T21:31:44.881Z,65.26
2023-03-26T21:34:55.703Z,65.30
2023-03-26T21:37:59.944Z,65.40
2023-03-26T21:41:02.507Z,65.54
2023-03-26T21:44:04.770Z,65.66
2023-03-26T21:47:08.476Z,65.69
2023-03-26T21:50:14.154Z,65.88
2023-03-26T21:53:16.925Z,65.66
2023-03-26T21:56:45.036Z,65.84
2023-03-26T22:00:08.950Z,65.85
2023-03-26T22:03:35.171Z,66.07
2023-03-26T22:06:49.082Z,66.34
2023-03-26T22:09:54.325Z,66.62
2023-03-26T22:12:56.337Z,66.77
2023-03-26T22:15:58.276Z,66.74
2023-03-26T22:19:00.616Z,67.07
2023-03-26T22:22:22.495Z,67.30
2023-03-26T22:25:24.892Z,67.16
2023-03-26T22:28:26.572Z,67.23
2023-03-26T22:31:28.103Z,67.47
2023-03-26T22:34:30.413Z,67.57
2023-03-26T22:37:33.199Z,67.85
2023-03-26T22:40:34.887Z,68.15
2023-03-26T22:43:37.063Z,68.31
2023-03-26T22:46:38.901Z,68.81
2023-03-26T22:49:40.625Z,68.37
2023-03-26T22:52:42.051Z,68.18
2023-03-26T22:55:43.765Z,68.48
2023-03-26T22:58:46.154Z,68.25
2023-03-26T23:01:48.070Z,68.48
2023-03-26T23:04:49.713Z,68.70
2023-03-26T23:07:54.564Z,68.74
2023-03-26T23:10:56.746Z,68.65
2023-03-26T23:13:58.796Z,68.66
2023-03-26T23:17:00.689Z,68.77
2023-03-26T23:20:03.079Z,68.92
2023-03-26T23:23:05.660Z,69.20
2023-03-26T23:26:07.630Z,69.28
2023-03-26T23:29:11.964Z,69.27
2023-03-26T23:32:24.464Z,69.22
2023-03-26T23:35:26.568Z,69.14
2023-03-26T23:38:28.946Z,69.27
2023-03-26T23:41:48.623Z,69.27
2023-03-26T23:44:50.788Z,69.22
2023-03-26T23:47:52.583Z,69.36
2023-03-26T23:51:03.185Z,69.51
2023-03-26T23:54:06.386Z,69.57
2023-03-26T23:57:11.416Z,69.76
